Time;durP1;ratioP1;P1;durP2;ratioP2;P2;SDS_P1;SDS_P2;PMS_P1;PMS_P2;Temp;Humidity;BMP_temperature;BMP_pressure;BME280_temperature;BME280_humidity;BME280_pressure;Samples;Min_cycle;Max_cycle;Signal;HPM_P1;HPM_P2
2023/09/28 00:02:18;;;;;;;6.77;2.10;;;;;;;23.37;49.09;99090.22;5014205;28;20516;-87
2023/09/28 00:04:44;;;;;;;5.83;1.70;;;;;;;23.35;49.41;99092.19;5013854;28;20232;-87
2023/09/28 00:12:59;;;;;;;7.77;2.53;;;;;;;23.34;49.49;99084.31;5033185;28;20216;-87
2023/09/28 00:15:25;;;;;;;5.90;1.97;;;;;;;23.31;49.86;99095.34;5033749;28;20174;-86
2023/09/28 00:17:51;;;;;;;4.30;1.70;;;;;;;23.34;49.82;99084.31;5033911;28;20261;-87
2023/09/28 00:20:36;;;;;;;3.63;1.60;;;;;;;23.35;49.79;99083.34;5015963;28;20182;-87
2023/09/28 00:23:03;;;;;;;6.67;2.30;;;;;;;23.36;48.99;99079.66;5016510;28;20687;-87
2023/09/28 00:25:28;;;;;;;4.83;1.87;;;;;;;23.38;48.82;99077.66;5013790;28;20174;-87
2023/09/28 00:27:55;;;;;;;6.10;2.13;;;;;;;23.35;49.21;99081.47;4996677;28;20219;-87
2023/09/28 00:30:24;;;;;;;6.83;2.10;;;;;;;23.36;49.17;99076.97;5015804;28;20185;-87
2023/09/28 00:32:54;;;;;;;3.83;1.80;;;;;;;23.42;48.89;99071.84;5033493;28;20651;-87
2023/09/28 00:35:20;;;;;;;6.97;1.80;;;;;;;23.42;48.90;99074.53;5015181;28;20174;-87
2023/09/28 00:37:51;;;;;;;4.60;1.40;;;;;;;23.43;48.78;99073.50;5033003;28;20185;-86
2023/09/28 00:40:21;;;;;;;4.43;2.10;;;;;;;23.46;48.23;99088.41;5032631;28;20206;-87
2023/09/28 00:45:37;;;;;;;3.97;1.60;;;;;;;23.42;48.23;99077.22;5033107;28;20190;-86
2023/09/28 00:48:06;;;;;;;7.33;2.03;;;;;;;23.45;47.94;99079.56;5032861;28;20202;-87
2023/09/28 00:53:35;;;;;;;6.17;1.53;;;;;;;23.47;47.85;99080.22;5033248;28;20166;-87
2023/09/28 00:56:00;;;;;;;6.93;2.00;;;;;;;23.46;47.70;99077.69;5032985;28;20190;-87
2023/09/28 00:58:46;;;;;;;4.93;1.77;;;;;;;23.45;47.75;99073.38;5032892;28;20253;-87
2023/09/28 01:01:14;;;;;;;7.53;2.37;;;;;;;23.46;47.65;99072.34;5032634;28;20688;-86
2023/09/28 01:03:41;;;;;;;5.53;1.93;;;;;;;23.43;47.76;99073.50;5015387;28;20202;-87
2023/09/28 01:08:52;;;;;;;5.13;1.80;;;;;;;23.41;48.01;99069.31;5032897;28;20205;-87
2023/09/28 01:11:22;;;;;;;7.60;1.60;;;;;;;23.47;47.88;99060.66;5032898;28;20179;-86
2023/09/28 01:13:49;;;;;;;6.13;2.23;;;;;;;23.48;47.42;99054.31;5015846;28;20170;-86
2023/09/28 01:16:15;;;;;;;7.93;1.87;;;;;;;23.47;47.85;99050.78;5033164;28;20187;-87
2023/09/28 01:18:41;;;;;;;4.93;2.10;;;;;;;23.51;47.60;99046.78;5033008;28;20181;-87
2023/09/28 01:21:10;;;;;;;7.27;1.80;;;;;;;23.50;47.48;99053.16;5033252;28;20171;-87
2023/09/28 01:23:38;;;;;;;5.83;1.80;;;;;;;23.50;47.75;99047.78;5032417;28;20583;-87
2023/09/28 01:26:22;;;;;;;4.27;1.67;;;;;;;23.51;47.64;99043.25;5032384;28;20225;-87
2023/09/28 01:28:49;;;;;;;3.50;1.57;;;;;;;23.44;47.70;99047.59;5032875;28;20263;-87
2023/09/28 01:31:16;;;;;;;8.90;1.70;;;;;;;23.45;47.63;99035.91;5016093;28;20182;-87
2023/09/28 01:33:42;;;;;;;9.27;1.50;;;;;;;23.54;47.00;99042.94;5032720;28;20186;-87
2023/09/28 01:36:09;;;;;;;5.23;1.60;;;;;;;23.51;47.26;99037.91;5015104;28;20175;-87
2023/09/28 01:38:40;;;;;;;8.23;2.07;;;;;;;23.50;47.43;99047.78;5032496;28;20535;-87
2023/09/28 01:41:07;;;;;;;4.73;1.40;;;;;;;23.48;47.28;99046.28;5015944;28;20597;-87
2023/09/28 01:43:35;;;;;;;3.30;1.47;;;;;;;23.52;47.42;99050.28;5032842;28;20181;-87
2023/09/28 01:46:02;;;;;;;5.77;1.60;;;;;;;23.50;46.91;99041.59;5032378;28;20171;-87
2023/09/28 01:48:47;;;;;;;4.87;1.80;;;;;;;23.48;46.94;99047.09;5032458;28;20191;-87
2023/09/28 01:51:14;;;;;;;6.77;1.83;;;;;;;23.45;47.03;99044.78;5016164;28;20181;-87
2023/09/28 01:53:39;;;;;;;5.53;2.07;;;;;;;23.43;47.14;99051.25;5035497;28;20236;-87
2023/09/28 01:56:04;;;;;;;8.80;1.90;;;;;;;23.45;47.50;99058.16;5036299;28;20575;-86
2023/09/28 01:58:31;;;;;;;8.63;2.07;;;;;;;23.46;47.41;99056.28;5016162;28;20667;-87
2023/09/28 02:00:58;;;;;;;4.20;2.00;;;;;;;23.43;47.44;99061.97;5016207;28;20183;-87
2023/09/28 02:03:23;;;;;;;5.97;1.80;;;;;;;23.47;47.61;99055.31;5022542;28;20170;-87
2023/09/28 02:05:49;;;;;;;5.97;1.77;;;;;;;23.43;48.13;99061.97;5035724;28;20170;-87
2023/09/28 02:08:16;;;;;;;6.63;1.80;;;;;;;23.32;48.49;99063.09;5018228;28;20723;-86
2023/09/28 02:10:42;;;;;;;4.63;1.90;;;;;;;23.36;48.98;99060.91;5036286;28;20186;-87
2023/09/28 02:13:09;;;;;;;4.93;1.60;;;;;;;23.31;48.46;99056.06;5035698;28;20170;-87
2023/09/28 02:15:36;;;;;;;6.93;2.60;;;;;;;23.20;48.55;99059.03;5018543;28;20175;-87
2023/09/28 02:18:03;;;;;;;6.00;2.00;;;;;;;23.22;47.70;99062.38;5017930;28;20210;-87
2023/09/28 02:20:48;;;;;;;5.23;1.63;;;;;;;23.20;47.98;99059.88;5018765;28;20182;-88
2023/09/28 02:23:15;;;;;;;3.60;1.60;;;;;;;23.19;47.48;99065.41;5018286;28;20566;-87
2023/09/28 02:25:40;;;;;;;4.43;1.87;;;;;;;23.14;46.98;99060.50;5035744;28;20182;-87
2023/09/28 02:30:51;;;;;;;6.33;1.80;;;;;;;23.16;46.84;99066.56;5035624;28;20256;-87
2023/09/28 02:33:17;;;;;;;4.17;1.60;;;;;;;23.12;47.29;99065.19;5017911;28;20202;-88
2023/09/28 02:35:42;;;;;;;4.93;1.70;;;;;;;23.16;47.28;99060.38;5034939;28;20185;-87
2023/09/28 02:38:28;;;;;;;3.80;1.67;;;;;;;23.18;46.97;99053.03;5035832;28;20520;-87
2023/09/28 02:43:40;;;;;;;5.83;1.90;;;;;;;23.21;47.70;99072.25;5035247;28;20216;-86
2023/09/28 02:46:06;;;;;;;8.90;1.80;;;;;;;23.14;47.96;99063.19;5035577;28;20240;-87
2023/09/28 02:51:17;;;;;;;4.70;1.83;;;;;;;23.15;48.59;99064.88;5035384;28;20169;-87
2023/09/28 02:53:44;;;;;;;11.70;2.10;;;;;;;23.07;48.91;99062.16;5017373;28;20627;-88
2023/09/28 02:56:13;;;;;;;6.57;1.97;;;;;;;23.12;48.86;99059.84;5035282;28;20596;-87
2023/09/28 02:58:57;;;;;;;8.33;2.20;;;;;;;23.21;48.85;99074.09;5017248;28;20252;-87
2023/09/28 03:01:24;;;;;;;5.57;1.90;;;;;;;23.13;49.23;99060.69;5017136;28;20209;-87
2023/09/28 03:03:50;;;;;;;8.90;2.37;;;;;;;23.15;48.75;99070.22;5016960;28;20178;-87
2023/09/28 03:06:16;;;;;;;6.37;2.53;;;;;;;23.06;49.53;99067.69;5017187;28;20178;-87
2023/09/28 03:09:00;;;;;;;4.30;1.93;;;;;;;23.01;49.51;99069.97;5017145;28;20296;-87
2023/09/28 03:14:12;;;;;;;8.33;2.67;;;;;;;23.10;49.07;99072.56;5035231;28;20258;-87
2023/09/28 03:16:39;;;;;;;5.03;2.00;;;;;;;23.07;48.57;99066.69;5017121;28;20252;-86
2023/09/28 03:19:08;;;;;;;7.10;2.80;;;;;;;23.10;48.70;99075.22;5034625;28;20194;-87
2023/09/28 03:21:35;;;;;;;5.87;2.60;;;;;;;23.17;48.25;99072.72;5035056;28;20182;-87
2023/09/28 03:24:01;;;;;;;7.70;2.17;;;;;;;23.16;48.46;99071.06;5034593;28;20175;-87
2023/09/28 03:26:30;;;;;;;6.17;2.07;;;;;;;23.23;48.00;99077.44;5034879;28;20244;-88
2023/09/28 03:28:59;;;;;;;11.20;2.73;;;;;;;23.29;47.89;99087.50;5034110;28;20214;-87
2023/09/28 03:31:27;;;;;;;4.83;2.03;;;;;;;23.27;48.50;99086.78;5034747;28;20171;-87
2023/09/28 03:33:56;;;;;;;3.93;1.93;;;;;;;23.19;48.51;99081.44;5034517;28;20265;-87
2023/09/28 03:36:23;;;;;;;7.27;2.13;;;;;;;23.09;49.00;99091.41;5034089;28;20182;-87
2023/09/28 03:38:50;;;;;;;4.83;2.03;;;;;;;23.09;49.08;99088.75;5034251;28;20182;-87
2023/09/28 03:41:17;;;;;;;5.83;1.60;;;;;;;23.19;49.18;99084.13;5034061;28;20562;-87
2023/09/28 03:43:48;;;;;;;5.27;2.20;;;;;;;23.23;48.69;99086.31;5033935;28;20205;-87
2023/09/28 03:46:21;;;;;;;4.73;2.20;;;;;;;23.19;48.81;99092.97;5033886;28;20179;-87
2023/09/28 03:48:47;;;;;;;12.67;2.97;;;;;;;23.14;49.07;99095.28;5021650;28;20225;-88
2023/09/28 03:51:15;;;;;;;5.60;2.10;;;;;;;23.14;49.22;99089.09;5014130;28;20708;-87
2023/09/28 03:53:59;;;;;;;7.17;1.77;;;;;;;23.25;49.25;99095.00;5014289;28;20191;-87
2023/09/28 04:02:15;;;;;;;6.00;2.10;;;;;;;23.29;48.81;99098.19;5033891;28;20279;-87
2023/09/28 04:04:59;;;;;;;6.43;2.03;;;;;;;23.34;48.78;99089.69;5033933;28;20610;-87
2023/09/28 04:07:24;;;;;;;4.37;2.07;;;;;;;23.38;49.40;99089.22;5033336;28;20640;-87
2023/09/28 04:09:51;;;;;;;5.60;2.13;;;;;;;23.31;49.64;99088.16;5033257;28;20196;-87
2023/09/28 04:12:16;;;;;;;6.13;2.00;;;;;;;23.33;49.75;99101.38;5033297;28;20182;-87
2023/09/28 04:14:43;;;;;;;8.00;2.60;;;;;;;23.33;49.64;99098.69;5015744;28;20189;-87
2023/09/28 04:20:13;;;;;;;7.50;2.67;;;;;;;23.26;49.54;99109.22;5022868;28;20244;-87
2023/09/28 04:22:40;;;;;;;7.90;3.10;;;;;;;23.22;49.96;99113.19;5018643;28;20596;-87
2023/09/28 04:25:07;;;;;;;6.60;2.50;;;;;;;23.26;49.58;99114.56;5001877;28;20244;-87
2023/09/28 04:30:38;;;;;;;5.13;2.10;;;;;;;23.32;49.38;99119.28;5031618;28;20661;-86
2023/09/28 04:33:22;;;;;;;6.17;2.10;;;;;;;23.21;49.18;99117.72;5033496;28;20332;-87
2023/09/28 04:35:49;;;;;;;5.93;2.00;;;;;;;23.19;49.14;99125.06;5033596;28;20159;-87
2023/09/28 04:38:35;;;;;;;7.20;1.97;;;;;;;23.20;48.76;99128.56;5015484;28;20620;-87
2023/09/28 04:43:47;;;;;;;8.00;2.30;;;;;;;23.12;48.73;99139.22;5033488;28;20201;-87
2023/09/28 04:48:57;;;;;;;9.43;2.57;;;;;;;23.18;48.04;99134.09;5033402;28;20233;-87
2023/09/28 04:51:43;;;;;;;5.40;2.30;;;;;;;23.24;48.03;99128.06;5003579;28;20186;-87
2023/09/28 04:54:09;;;;;;;7.47;2.10;;;;;;;23.13;48.48;99140.91;5013160;28;20755;-87
2023/09/28 04:59:40;;;;;;;4.80;1.90;;;;;;;23.11;48.68;99142.91;5033156;28;20196;-87
2023/09/28 05:02:07;;;;;;;7.80;1.63;;;;;;;23.17;48.34;99145.78;5033607;28;20645;-87
2023/09/28 05:04:33;;;;;;;9.20;2.43;;;;;;;23.24;48.23;99148.66;5015509;28;20269;-87
2023/09/28 05:07:17;;;;;;;7.10;2.00;;;;;;;23.16;48.57;99143.28;5033496;28;20194;-87
2023/09/28 05:12:29;;;;;;;6.13;2.13;;;;;;;23.14;48.79;99147.91;5013358;28;20221;-87
2023/09/28 05:14:57;;;;;;;3.97;1.93;;;;;;;23.19;48.61;99140.28;4995839;28;20572;-87
2023/09/28 05:17:42;;;;;;;4.97;1.90;;;;;;;23.20;48.97;99149.97;5002210;28;20171;-87
2023/09/28 05:20:26;;;;;;;6.40;2.27;;;;;;;23.20;49.35;99148.13;5033132;28;20179;-87
2023/09/28 05:22:52;;;;;;;11.90;2.57;;;;;;;23.20;49.52;99148.13;5032652;28;20182;-87
2023/09/28 05:25:17;;;;;;;10.23;2.30;;;;;;;23.27;48.98;99147.50;5016361;28;20181;-87
2023/09/28 05:28:03;;;;;;;8.27;1.90;;;;;;;23.23;49.09;99150.50;5019109;28;20202;-87
2023/09/28 05:30:29;;;;;;;8.07;2.47;;;;;;;23.18;48.99;99150.13;5036557;28;20175;-87
2023/09/28 05:33:13;;;;;;;8.37;1.83;;;;;;;23.14;49.45;99142.56;5019195;28;20625;-87
2023/09/28 05:35:40;;;;;;;8.70;2.53;;;;;;;23.13;49.32;99143.59;5036351;28;20286;-88
2023/09/28 05:40:50;;;;;;;6.40;1.90;;;;;;;23.09;49.59;99144.88;5036966;28;20297;-87
2023/09/28 05:43:16;;;;;;;5.77;2.00;;;;;;;23.10;49.65;99146.56;5018811;28;20174;-88
2023/09/28 05:45:41;;;;;;;5.70;2.03;;;;;;;23.09;49.84;99139.53;5018742;28;20647;-87
2023/09/28 05:48:07;;;;;;;4.33;1.80;;;;;;;23.29;49.14;99146.34;5018684;28;20263;-87
2023/09/28 05:50:34;;;;;;;5.23;2.20;;;;;;;23.37;48.76;99149.09;5036260;28;20174;-87
2023/09/28 05:53:18;;;;;;;5.73;1.67;;;;;;;23.47;48.85;99143.59;5018559;28;20197;-86
2023/09/28 05:56:05;;;;;;;6.07;1.77;;;;;;;23.54;49.01;99145.47;5035880;28;20189;-87
2023/09/28 05:58:32;;;;;;;7.07;2.30;;;;;;;23.71;48.20;99141.84;5001514;28;20179;-87
2023/09/28 06:01:06;;;;;;;8.93;2.63;;;;;;;23.75;47.99;99148.53;5016787;28;20186;-88
2023/09/28 06:03:32;;;;;;;3.87;2.07;;;;;;;23.69;48.58;99143.81;5020657;28;20174;-87
2023/09/28 06:05:58;;;;;;;4.43;2.03;;;;;;;23.90;47.88;99150.59;5035907;28;20170;-87
2023/09/28 06:08:25;;;;;;;8.93;2.60;;;;;;;23.90;47.62;99151.41;5035570;28;20209;-87
2023/09/28 06:10:51;;;;;;;6.90;2.00;;;;;;;23.74;48.15;99152.19;5018331;28;20182;-88
2023/09/28 06:13:18;;;;;;;7.83;1.77;;;;;;;23.84;48.17;99152.91;5020127;28;20198;-87
2023/09/28 06:15:45;;;;;;;5.57;2.20;;;;;;;23.97;47.93;99159.63;5011689;28;20614;-87
2023/09/28 06:18:11;;;;;;;6.50;2.27;;;;;;;23.98;48.11;99159.44;5035701;28;20162;-88
2023/09/28 06:20:36;;;;;;;3.70;1.60;;;;;;;24.05;47.74;99151.59;5017978;28;20620;-87
2023/09/28 06:23:04;;;;;;;4.23;1.90;;;;;;;24.10;47.45;99157.34;5018214;28;20189;-87
2023/09/28 06:25:31;;;;;;;9.83;2.00;;;;;;;24.17;47.51;99159.19;5018180;28;20636;-87
2023/09/28 06:27:57;;;;;;;5.40;1.63;;;;;;;24.34;47.45;99170.75;5035749;28;20285;-87
2023/09/28 06:30:24;;;;;;;6.17;2.10;;;;;;;24.42;46.83;99168.09;5035784;28;20170;-87
2023/09/28 06:32:51;;;;;;;5.10;1.63;;;;;;;24.37;47.02;99175.78;5035154;28;20543;-88
2023/09/28 06:35:18;;;;;;;7.30;2.03;;;;;;;24.19;47.24;99172.41;5018239;28;20174;-87
2023/09/28 06:37:45;;;;;;;6.87;2.40;;;;;;;24.14;47.54;99166.69;5017261;28;20182;-87
2023/09/28 06:40:30;;;;;;;6.60;2.03;;;;;;;24.16;48.05;99178.09;5017857;28;20240;-88
2023/09/28 06:42:57;;;;;;;6.17;2.30;;;;;;;24.15;48.08;99177.25;5017514;28;20185;-87
2023/09/28 06:45:24;;;;;;;10.13;2.20;;;;;;;24.19;48.46;99170.56;5035494;28;20178;-87
2023/09/28 06:47:49;;;;;;;6.93;1.93;;;;;;;24.21;47.98;99184.63;5017251;28;20194;-87
2023/09/28 06:50:14;;;;;;;10.77;3.07;;;;;;;24.25;49.51;99187.81;5035026;28;20245;-88
2023/09/28 06:52:40;;;;;;;8.33;2.13;;;;;;;24.10;52.66;99186.78;5017386;28;20178;-88
2023/09/28 06:55:07;;;;;;;9.57;2.37;;;;;;;24.12;52.32;99192.81;5017429;28;20194;-88
2023/09/28 06:57:34;;;;;;;5.77;2.43;;;;;;;24.09;52.37;99191.31;5017468;28;20174;-88
2023/09/28 07:00:01;;;;;;;7.50;2.20;;;;;;;24.14;54.08;99201.50;5035089;28;20214;-89
2023/09/28 07:02:28;;;;;;;6.53;2.30;;;;;;;24.20;54.28;99208.91;5035145;28;20174;-92
2023/09/28 07:04:55;;;;;;;6.07;2.40;;;;;;;24.15;54.72;99209.41;5034993;28;20249;-90
2023/09/28 07:07:22;;;;;;;9.73;3.20;;;;;;;24.11;55.31;99217.94;5034495;28;20194;-89
2023/09/28 07:10:08;;;;;;;11.07;2.80;;;;;;;23.98;58.41;99213.00;5034608;28;20621;-89
2023/09/28 07:12:33;;;;;;;12.17;3.03;;;;;;;23.92;58.82;99223.53;5035038;28;20655;-89
2023/09/28 07:15:00;;;;;;;10.53;3.53;;;;;;;23.79;60.17;99230.16;5034499;28;20253;-87
2023/09/28 07:17:45;;;;;;;11.23;3.20;;;;;;;23.75;60.21;99218.13;5034373;28;20570;-87
2023/09/28 07:22:56;;;;;;;8.70;3.47;;;;;;;23.63;60.27;99224.78;5034555;28;20228;-88
2023/09/28 07:25:25;;;;;;;5.77;2.40;;;;;;;23.65;60.22;99227.28;5034471;28;20174;-87
2023/09/28 07:28:11;;;;;;;7.53;2.80;;;;;;;23.52;61.21;99226.91;5034643;28;20233;-87
2023/09/28 07:30:36;;;;;;;10.33;3.23;;;;;;;23.32;62.00;99231.63;5028269;28;20189;-88
2023/09/28 07:33:04;;;;;;;9.57;3.27;;;;;;;23.38;61.77;99230.16;5014517;28;20183;-88
2023/09/28 07:35:31;;;;;;;9.47;3.47;;;;;;;23.35;61.89;99225.94;5014498;28;20178;-87
2023/09/28 07:40:41;;;;;;;9.73;2.83;;;;;;;23.04;62.50;99224.75;5034017;28;20168;-87
2023/09/28 07:43:07;;;;;;;7.60;2.33;;;;;;;23.04;62.49;99225.59;5016838;28;20170;-87
2023/09/28 07:45:51;;;;;;;5.33;2.20;;;;;;;23.12;62.17;99222.13;5031092;28;20217;-87
2023/09/28 07:48:37;;;;;;;5.97;2.20;;;;;;;22.97;62.72;99223.69;4996880;28;20203;-87
2023/09/28 07:51:03;;;;;;;7.87;2.40;;;;;;;23.01;62.40;99219.69;5014254;28;20181;-87
2023/09/28 07:53:31;;;;;;;5.87;2.30;;;;;;;22.94;63.82;99221.34;5025568;28;20355;-87
2023/09/28 07:55:57;;;;;;;5.90;3.27;;;;;;;23.06;63.28;99222.78;5033542;28;20559;-87
2023/09/28 07:58:22;;;;;;;6.63;2.77;;;;;;;23.01;63.75;99222.38;5034102;28;20182;-86
2023/09/28 08:01:09;;;;;;;11.77;2.57;;;;;;;23.04;63.58;99225.59;5034350;28;20233;-86
2023/09/28 08:03:37;;;;;;;6.00;2.50;;;;;;;23.12;63.46;99232.81;5034102;28;20198;-86
2023/09/28 08:08:48;;;;;;;5.63;2.33;;;;;;;23.01;64.76;99227.72;5013932;28;20288;-86
2023/09/28 08:11:52;;;;;;;6.03;2.30;;;;;;;22.89;65.69;99224.50;5018162;28;20260;-86
2023/09/28 08:14:21;;;;;;;7.07;3.20;;;;;;;22.76;66.13;99234.75;5033549;28;20689;-86
2023/09/28 08:16:47;;;;;;;8.13;2.50;;;;;;;22.78;65.89;99232.75;5033498;28;20256;-86
2023/09/28 08:19:13;;;;;;;5.10;2.17;;;;;;;22.88;65.78;99233.50;5033353;28;20695;-86
2023/09/28 08:21:57;;;;;;;6.10;2.83;;;;;;;22.79;65.80;99229.09;5033474;28;20174;-87
2023/09/28 08:24:22;;;;;;;4.17;2.23;;;;;;;22.72;66.27;99229.88;4999178;28;20579;-87
2023/09/28 08:26:48;;;;;;;10.93;2.80;;;;;;;22.78;67.04;99231.91;5016152;28;20174;-86
2023/09/28 08:29:15;;;;;;;4.90;2.50;;;;;;;22.87;67.30;99231.00;5015898;28;20220;-86
2023/09/28 08:32:00;;;;;;;4.13;2.23;;;;;;;22.98;67.08;99230.75;5015730;28;20182;-86
2023/09/28 08:34:27;;;;;;;11.20;3.30;;;;;;;23.10;67.49;99227.63;5033524;28;20183;-87
2023/09/28 08:36:52;;;;;;;8.70;2.67;;;;;;;23.19;67.87;99229.34;5033646;28;20182;-87
2023/09/28 08:39:17;;;;;;;8.50;2.70;;;;;;;23.20;67.65;99227.53;5033363;28;20186;-86
2023/09/28 08:41:47;;;;;;;5.63;2.53;;;;;;;23.23;68.00;99232.56;5033343;28;20249;-86
2023/09/28 08:44:13;;;;;;;4.40;2.13;;;;;;;23.25;67.75;99225.22;5032963;28;20269;-86
2023/09/28 08:46:40;;;;;;;7.13;2.27;;;;;;;23.16;68.22;99220.81;5015600;28;20174;-86
2023/09/28 08:49:07;;;;;;;6.30;2.53;;;;;;;23.15;68.07;99224.50;5016031;28;20198;-86
2023/09/28 08:54:22;;;;;;;5.23;2.50;;;;;;;23.26;67.87;99221.56;5032961;28;20189;-86
2023/09/28 08:57:07;;;;;;;6.90;2.30;;;;;;;23.23;67.75;99221.88;5015872;28;20186;-86
2023/09/28 08:59:36;;;;;;;6.07;1.97;;;;;;;23.24;67.94;99226.22;5015787;28;20186;-86
2023/09/28 09:02:23;;;;;;;8.60;2.50;;;;;;;23.16;67.62;99228.84;5019472;28;20371;-88
2023/09/28 09:05:08;;;;;;;4.90;2.13;;;;;;;23.31;68.10;99231.75;5036903;28;20189;-88
2023/09/28 09:07:36;;;;;;;6.57;2.80;;;;;;;23.38;68.26;99228.31;5037478;28;20206;-88
2023/09/28 09:10:03;;;;;;;4.10;2.27;;;;;;;23.45;69.11;99223.19;5037257;28;20170;-88
2023/09/28 09:12:32;;;;;;;9.03;2.40;;;;;;;23.39;69.59;99227.34;5037345;28;20265;-89
2023/09/28 09:15:17;;;;;;;7.40;2.67;;;;;;;23.25;69.38;99218.03;5037315;28;20248;-88
2023/09/28 09:17:44;;;;;;;6.97;2.50;;;;;;;23.21;69.64;99218.50;5001688;28;20544;-88
2023/09/28 09:20:10;;;;;;;7.43;2.67;;;;;;;23.13;69.77;99216.63;5036792;28;20222;-87
2023/09/28 09:22:37;;;;;;;7.10;2.43;;;;;;;23.16;69.59;99210.97;5037055;28;20245;-87
2023/09/28 09:25:05;;;;;;;5.83;1.73;;;;;;;23.19;70.55;99209.81;5036412;28;20190;-87
2023/09/28 09:27:32;;;;;;;4.90;2.00;;;;;;;23.20;70.10;99211.47;5036344;28;20213;-87
2023/09/28 09:30:08;;;;;;;9.17;2.63;;;;;;;23.30;70.11;99212.19;5036628;28;20170;-86
2023/09/28 09:32:34;;;;;;;7.70;2.10;;;;;;;23.51;71.07;99214.50;5036319;28;20192;-87
2023/09/28 09:35:02;;;;;;;6.80;2.33;;;;;;;23.75;70.49;99217.28;5036539;28;20182;-87
2023/09/28 09:37:27;;;;;;;7.00;2.67;;;;;;;23.68;69.32;99219.78;5036344;28;20197;-86
2023/09/28 09:40:10;;;;;;;8.37;2.43;;;;;;;23.67;68.59;99220.78;5018972;28;20178;-87
2023/09/28 09:42:37;;;;;;;9.90;3.20;;;;;;;23.82;68.13;99224.50;5018981;28;20612;-89
2023/09/28 09:45:04;;;;;;;5.57;2.73;;;;;;;23.82;68.48;99224.50;5018959;28;20186;-88
2023/09/28 09:47:29;;;;;;;6.67;2.47;;;;;;;23.85;68.03;99224.19;5036453;28;20210;-88
2023/09/28 09:49:57;;;;;;;11.60;2.03;;;;;;;23.88;68.33;99222.19;5036211;28;20191;-90
2023/09/28 09:55:12;;;;;;;20.87;2.83;;;;;;;24.00;68.40;99223.56;5035932;28;20299;-88
2023/09/28 09:57:46;;;;;;;4.03;2.23;;;;;;;24.01;68.51;99218.03;5036352;28;20189;-87
2023/09/28 10:00:18;;;;;;;8.00;1.97;;;;;;;24.03;68.65;99212.53;5036045;28;20218;-88
2023/09/28 10:02:51;;;;;;;4.87;2.37;;;;;;;24.03;68.82;99210.66;5036630;28;20166;-88
2023/09/28 10:05:21;;;;;;;8.90;2.53;;;;;;;24.06;68.76;99209.50;5035831;28;20190;-89
2023/09/28 10:07:48;;;;;;;6.97;2.90;;;;;;;24.08;68.68;99203.00;5035637;28;20202;-88
2023/09/28 10:10:14;;;;;;;4.77;2.47;;;;;;;24.04;68.63;99204.31;5035824;28;20174;-89
2023/09/28 10:16:02;;;;;;;5.80;2.27;;;;;;;23.89;69.60;99207.78;5036376;28;20615;-88
2023/09/28 10:18:32;;;;;;;6.67;2.60;;;;;;;23.89;69.52;99202.44;5035757;28;20711;-88
2023/09/28 10:21:00;;;;;;;6.30;2.37;;;;;;;23.84;69.35;99206.47;5035518;28;20182;-88
2023/09/28 10:23:27;;;;;;;6.17;2.87;;;;;;;23.79;69.52;99202.59;5035653;28;20190;-87
2023/09/28 10:26:11;;;;;;;4.27;2.37;;;;;;;23.89;69.07;99207.78;5035187;28;20206;-87
2023/09/28 10:34:37;;;;;;;12.70;3.37;;;;;;;24.02;69.80;99197.44;5035466;28;20185;-87
2023/09/28 10:37:15;;;;;;;9.17;3.23;;;;;;;24.03;70.49;99199.97;5017704;28;20674;-88
2023/09/28 10:40:00;;;;;;;5.07;2.80;;;;;;;24.05;70.12;99203.34;5035252;28;20261;-87
2023/09/28 10:42:27;;;;;;;8.23;3.00;;;;;;;24.11;70.04;99208.03;5018142;28;20189;-87
2023/09/28 10:44:56;;;;;;;8.13;2.73;;;;;;;24.08;69.42;99202.16;5018338;28;20213;-87
2023/09/28 10:47:22;;;;;;;6.07;2.73;;;;;;;24.08;69.43;99210.19;5017461;28;20293;-87
2023/09/28 10:53:01;;;;;;;7.77;3.37;;;;;;;24.18;69.31;99208.25;5015578;28;20270;-87
2023/09/28 10:55:26;;;;;;;7.40;2.77;;;;;;;24.21;69.40;99214.09;5023377;28;20230;-87
2023/09/28 10:57:53;;;;;;;6.60;3.20;;;;;;;24.24;68.76;99213.75;5018644;28;20174;-87
2023/09/28 11:00:23;;;;;;;9.23;3.07;;;;;;;24.28;69.06;99209.75;5035078;28;20209;-88
2023/09/28 11:05:53;;;;;;;9.40;3.07;;;;;;;24.29;69.60;99206.06;5034760;28;20248;-88
2023/09/28 11:08:22;;;;;;;6.33;2.60;;;;;;;24.23;69.59;99206.75;5034531;28;20233;-88
2023/09/28 11:11:07;;;;;;;7.60;2.57;;;;;;;24.26;69.33;99206.41;5034721;28;20185;-88
2023/09/28 11:13:51;;;;;;;13.60;2.70;;;;;;;24.29;69.45;99194.53;5017305;28;20185;-87
2023/09/28 11:16:18;;;;;;;6.03;2.80;;;;;;;24.32;69.55;99195.00;5034892;28;20592;-87
2023/09/28 11:18:43;;;;;;;6.77;3.03;;;;;;;24.40;69.69;99192.34;5034600;28;20232;-87
2023/09/28 11:21:10;;;;;;;7.43;2.90;;;;;;;24.38;70.04;99182.81;5034379;28;20186;-87
2023/09/28 11:23:38;;;;;;;6.90;2.73;;;;;;;24.57;70.26;99181.63;5034098;28;20198;-87
2023/09/28 11:26:05;;;;;;;5.13;2.30;;;;;;;24.55;69.43;99192.53;5034744;28;20644;-87
2023/09/28 11:28:31;;;;;;;7.70;2.83;;;;;;;24.63;69.21;99191.69;5034252;28;20209;-87
2023/09/28 11:31:15;;;;;;;5.90;2.70;;;;;;;24.78;69.25;99190.88;5017145;28;20170;-87
2023/09/28 11:33:44;;;;;;;8.07;2.57;;;;;;;24.75;69.28;99190.31;5034818;28;20178;-87
2023/09/28 11:36:17;;;;;;;5.10;2.80;;;;;;;24.76;69.35;99192.03;5034156;28;20265;-87
2023/09/28 11:38:44;;;;;;;7.47;2.90;;;;;;;24.70;68.56;99193.53;5034664;28;20162;-87
2023/09/28 11:41:12;;;;;;;5.70;2.90;;;;;;;24.81;68.37;99195.06;5034180;28;20261;-87
2023/09/28 11:43:46;;;;;;;5.57;2.77;;;;;;;24.58;68.51;99192.16;5034434;28;20671;-87
2023/09/28 11:46:17;;;;;;;6.00;2.40;;;;;;;24.55;68.75;99189.00;5034076;28;20232;-87
2023/09/28 11:49:04;;;;;;;10.77;2.83;;;;;;;24.50;68.91;99188.69;5033753;28;20277;-87
2023/09/28 11:51:31;;;;;;;8.27;2.83;;;;;;;24.56;69.13;99186.16;5034033;28;20166;-87
2023/09/28 11:54:17;;;;;;;4.87;2.53;;;;;;;24.62;69.05;99185.50;5033925;28;20242;-87
2023/09/28 11:56:44;;;;;;;6.23;2.37;;;;;;;24.64;69.00;99188.84;5016269;28;20598;-87
2023/09/28 11:59:09;;;;;;;6.27;2.90;;;;;;;24.56;68.96;99185.31;5000074;28;20189;-87
2023/09/28 12:01:36;;;;;;;6.47;3.10;;;;;;;24.48;68.65;99188.81;5034088;28;20253;-87
2023/09/28 12:04:21;;;;;;;7.20;2.77;;;;;;;24.50;68.92;99184.16;5033777;28;20178;-87
2023/09/28 12:06:48;;;;;;;5.40;2.70;;;;;;;24.57;69.27;99185.16;5033275;28;20193;-87
2023/09/28 12:09:18;;;;;;;7.77;3.40;;;;;;;24.68;69.50;99179.47;5033636;28;20198;-87
2023/09/28 12:12:04;;;;;;;5.87;2.90;;;;;;;24.74;69.40;99177.91;5016144;28;20186;-87
2023/09/28 12:14:29;;;;;;;8.17;2.87;;;;;;;24.62;68.75;99180.13;5033874;28;20174;-87
2023/09/28 12:16:57;;;;;;;7.77;3.10;;;;;;;24.64;68.38;99171.91;5033558;28;20557;-87
2023/09/28 12:19:22;;;;;;;5.43;3.23;;;;;;;24.78;68.34;99172.09;5033507;28;20648;-87
2023/09/28 12:21:51;;;;;;;4.87;2.57;;;;;;;24.69;67.94;99175.75;5015892;28;20694;-87
2023/09/28 12:24:37;;;;;;;7.20;2.53;;;;;;;24.73;68.51;99177.09;5015926;28;20178;-87
2023/09/28 12:27:05;;;;;;;11.57;2.90;;;;;;;24.69;68.15;99170.41;5033252;28;20186;-87
2023/09/28 12:29:32;;;;;;;4.83;2.00;;;;;;;24.64;68.70;99167.38;5033373;28;20565;-86
2023/09/28 12:31:58;;;;;;;9.73;3.10;;;;;;;24.88;68.52;99166.53;5033339;28;20261;-87
2023/09/28 12:34:44;;;;;;;5.43;2.60;;;;;;;24.92;68.25;99160.66;5015154;28;20624;-87
2023/09/28 12:37:11;;;;;;;8.67;3.03;;;;;;;24.98;68.26;99164.50;5033543;28;20181;-87
2023/09/28 12:39:38;;;;;;;5.30;2.60;;;;;;;24.97;67.55;99157.50;5033238;28;20316;-87
2023/09/28 12:42:04;;;;;;;4.47;2.50;;;;;;;25.09;67.53;99155.25;5033493;28;20510;-86
2023/09/28 12:44:33;;;;;;;4.50;2.40;;;;;;;25.19;67.41;99147.84;5033281;28;20180;-87
2023/09/28 12:46:59;;;;;;;5.73;2.77;;;;;;;25.16;66.82;99142.84;5015660;28;20582;-87
2023/09/28 12:49:24;;;;;;;5.93;2.67;;;;;;;25.25;66.85;99139.97;5032922;28;20264;-87
2023/09/28 12:51:51;;;;;;;7.30;2.93;;;;;;;25.26;66.26;99140.81;5015959;28;20232;-87
2023/09/28 12:54:17;;;;;;;6.30;3.30;;;;;;;25.43;66.12;99135.19;5016268;28;20174;-87
2023/09/28 12:56:45;;;;;;;11.37;2.67;;;;;;;25.34;66.30;99136.22;5015786;28;20252;-87
2023/09/28 13:01:56;;;;;;;5.80;3.10;;;;;;;25.32;66.61;99138.25;5033151;28;20247;-87
2023/09/28 13:04:24;;;;;;;6.07;2.80;;;;;;;25.43;66.78;99139.72;5033259;28;20345;-86
2023/09/28 13:06:52;;;;;;;5.20;2.57;;;;;;;25.50;66.56;99140.72;5033086;28;20255;-86
2023/09/28 13:09:17;;;;;;;15.03;2.83;;;;;;;25.42;66.54;99135.38;5033029;28;20221;-87